Time;durP1;ratioP1;P1;durP2;ratioP2;P2;SDS_P1;SDS_P2;PMS_P1;PMS_P2;Temp;Humidity;BMP_temperature;BMP_pressure;BME280_temperature;BME280_humidity;BME280_pressure;Samples;Min_cycle;Max_cycle;Signal;HPM_P1;HPM_P2
2021/07/24 00:00:18;;;;;;;10.00;5.57;;;11.00;70.60;;;;;;5105733;28;20024;-65
2021/07/24 00:03:26;;;;;;;9.15;6.18;;;11.00;70.10;;;;;;5098315;28;20292;-65
2021/07/24 00:06:32;;;;;;;7.97;3.63;;;10.90;70.40;;;;;;5103871;28;20027;-67
2021/07/24 00:09:38;;;;;;;5.00;2.57;;;10.90;70.00;;;;;;5102851;28;20569;-65
2021/07/24 00:12:44;;;;;;;3.20;2.47;;;10.80;69.00;;;;;;5097541;28;20066;-67
2021/07/24 00:15:50;;;;;;;2.78;2.17;;;10.80;70.10;;;;;;5106960;28;20064;-68
2021/07/24 00:18:57;;;;;;;3.90;2.58;;;10.80;69.70;;;;;;5107575;28;20028;-68
2021/07/24 00:21:23;;;;;;;6.30;4.03;;;10.70;69.60;;;;;;5104579;28;20023;-66
2021/07/24 00:23:49;;;;;;;5.93;3.33;;;10.60;70.30;;;;;;5102058;28;20304;-68
2021/07/24 00:26:16;;;;;;;10.45;3.97;;;10.60;70.60;;;;;;5101506;28;20027;-68
2021/07/24 00:28:43;;;;;;;4.65;3.30;;;10.50;70.70;;;;;;5098400;28;20023;-71
2021/07/24 00:31:09;;;;;;;2.75;2.47;;;10.50;70.30;;;;;;5103569;28;20543;-65
2021/07/24 00:33:36;;;;;;;3.67;2.13;;;10.50;70.40;;;;;;5102599;27;20102;-67
2021/07/24 00:36:02;;;;;;;2.13;1.83;;;10.50;69.50;;;;;;5101640;28;20031;-67
2021/07/24 00:38:29;;;;;;;1.90;1.25;;;10.50;69.20;;;;;;5095972;28;20020;-65
2021/07/24 00:41:00;;;;;;;1.80;1.45;;;10.50;69.20;;;;;;5108515;28;20386;-66
2021/07/24 00:43:34;;;;;;;2.92;1.85;;;10.40;69.40;;;;;;5102571;28;20490;-70
2021/07/24 00:46:04;;;;;;;3.30;1.58;;;10.40;69.30;;;;;;5098287;28;20123;-66
2021/07/24 00:48:35;;;;;;;5.13;2.15;;;10.40;69.60;;;;;;5102587;28;20039;-67
2021/07/24 00:51:01;;;;;;;4.97;1.98;;;10.40;69.70;;;;;;5100709;28;20016;-66
2021/07/24 00:53:36;;;;;;;6.28;3.83;;;10.40;70.00;;;;;;5097989;28;20023;-66
2021/07/24 00:56:42;;;;;;;6.63;5.40;;;10.40;70.50;;;;;;5103263;28;20020;-68
2021/07/24 00:59:48;;;;;;;8.63;5.90;;;10.30;70.80;;;;;;5103715;28;20019;-68
2021/07/24 01:02:54;;;;;;;9.10;5.67;;;10.30;71.00;;;;;;5100980;28;20658;-67
2021/07/24 01:06:00;;;;;;;9.07;4.87;;;10.30;71.30;;;;;;5102011;28;20024;-66
2021/07/24 01:09:06;;;;;;;6.47;4.03;;;10.20;71.50;;;;;;5095098;28;20055;-69
2021/07/24 01:12:13;;;;;;;8.53;4.60;;;10.20;71.40;;;;;;5102795;28;20425;-66
2021/07/24 01:15:19;;;;;;;7.17;4.77;;;10.10;71.90;;;;;;5104780;28;20264;-71
2021/07/24 01:18:25;;;;;;;4.63;3.37;;;10.10;71.60;;;;;;5106482;28;20024;-68
2021/07/24 01:20:56;;;;;;;5.95;3.30;;;10.00;71.50;;;;;;5094847;28;20494;-66
2021/07/24 01:23:22;;;;;;;6.10;3.13;;;10.00;71.60;;;;;;5102164;28;20089;-66
2021/07/24 01:25:52;;;;;;;4.63;3.22;;;10.00;71.40;;;;;;5103731;28;20480;-67
2021/07/24 01:28:26;;;;;;;4.55;3.08;;;10.00;71.70;;;;;;5106062;28;20020;-70
2021/07/24 01:30:54;;;;;;;3.28;1.65;;;10.00;72.10;;;;;;5106546;28;20023;-71
2021/07/24 01:33:21;;;;;;;3.65;1.80;;;9.90;71.90;;;;;;5105990;28;20028;-68
2021/07/24 01:35:48;;;;;;;2.40;1.73;;;9.90;71.70;;;;;;5105149;28;20020;-68
2021/07/24 01:38:16;;;;;;;3.53;1.58;;;9.90;71.50;;;;;;5103136;28;20034;-68
2021/07/24 01:40:43;;;;;;;2.50;1.20;;;9.90;71.60;;;;;;5100535;28;20073;-70
2021/07/24 01:43:10;;;;;;;2.47;0.82;;;9.90;71.50;;;;;;5104478;28;20024;-66
2021/07/24 01:45:38;;;;;;;3.15;0.85;;;9.80;71.30;;;;;;5105051;28;20427;-69
2021/07/24 01:48:11;;;;;;;2.05;0.95;;;9.80;71.20;;;;;;5099796;28;20023;-70
2021/07/24 01:53:25;;;;;;;0.82;0.80;;;9.80;70.60;;;;;;5105104;28;20664;-67
2021/07/24 01:56:02;;;;;;;3.97;0.85;;;9.70;70.10;;;;;;5106228;28;20386;-67
2021/07/24 01:58:32;;;;;;;0.47;0.40;;;9.70;69.20;;;;;;5100935;28;20477;-66
2021/07/24 02:01:04;;;;;;;5.43;4.30;;;9.80;68.10;;;;;;5098305;28;20062;-65
2021/07/24 02:03:46;;;;;;;7.55;5.88;;;9.80;68.00;;;;;;5102666;28;20034;-66
2021/07/24 02:06:14;;;;;;;6.30;3.88;;;9.80;68.20;;;;;;5103418;28;20032;-66
2021/07/24 02:08:49;;;;;;;3.55;3.17;;;9.80;68.70;;;;;;5101577;28;20693;-66
2021/07/24 02:11:17;;;;;;;3.67;2.97;;;9.80;68.80;;;;;;5104812;28;20099;-66
2021/07/24 02:13:44;;;;;;;2.95;2.65;;;9.80;69.10;;;;;;5103097;28;20267;-66
2021/07/24 02:16:10;;;;;;;4.13;1.75;;;9.80;69.90;;;;;;5099725;28;20098;-67
2021/07/24 02:18:38;;;;;;;1.90;1.15;;;9.80;70.10;;;;;;5106817;28;20132;-68
2021/07/24 02:21:05;;;;;;;1.13;1.02;;;9.80;70.80;;;;;;5104382;28;20034;-68
2021/07/24 02:23:31;;;;;;;1.83;0.95;;;9.70;70.50;;;;;;5099932;28;20501;-67
2021/07/24 02:25:58;;;;;;;0.93;0.73;;;9.70;70.60;;;;;;5101748;28;20042;-66
2021/07/24 02:28:25;;;;;;;0.98;0.75;;;9.70;70.80;;;;;;5096620;28;20016;-67
2021/07/24 02:30:52;;;;;;;1.02;0.95;;;9.70;71.10;;;;;;5100812;28;20123;-66
2021/07/24 02:33:19;;;;;;;1.95;1.05;;;9.70;71.60;;;;;;5101714;28;20035;-66
2021/07/24 02:35:45;;;;;;;2.15;1.52;;;9.70;71.60;;;;;;5102814;28;20522;-66
2021/07/24 02:38:12;;;;;;;1.30;1.20;;;9.70;71.60;;;;;;5097328;28;20364;-68
2021/07/24 02:40:40;;;;;;;1.92;1.00;;;9.60;71.60;;;;;;5103195;28;20093;-67
2021/07/24 02:43:06;;;;;;;1.77;1.20;;;9.60;71.30;;;;;;5102297;28;20027;-67
2021/07/24 02:45:33;;;;;;;3.28;1.55;;;9.60;71.50;;;;;;5102464;28;20779;-66
2021/07/24 02:47:59;;;;;;;10.95;7.07;;;9.50;71.80;;;;;;5099247;28;20059;-67
2021/07/24 02:50:26;;;;;;;16.70;11.77;;;9.50;71.50;;;;;;5095691;28;20019;-68
2021/07/24 02:52:52;;;;;;;8.05;4.80;;;9.50;71.70;;;;;;5105092;28;20415;-68
2021/07/24 02:55:19;;;;;;;5.32;3.47;;;9.50;71.80;;;;;;5104735;28;20518;-67
2021/07/24 02:57:45;;;;;;;3.58;2.65;;;9.50;71.70;;;;;;5105676;28;20055;-69
2021/07/24 03:00:12;;;;;;;3.92;2.75;;;9.40;71.60;;;;;;5104308;28;20032;-67
2021/07/24 03:02:38;;;;;;;3.45;1.60;;;9.40;71.90;;;;;;5099501;28;20020;-68
2021/07/24 03:05:05;;;;;;;2.30;1.30;;;9.30;72.20;;;;;;5102195;28;20035;-66
2021/07/24 03:07:32;;;;;;;3.90;2.17;;;9.30;72.40;;;;;;5106000;28;20050;-67
2021/07/24 03:09:58;;;;;;;2.67;0.90;;;9.30;72.80;;;;;;5103134;28;20012;-65
2021/07/24 03:12:25;;;;;;;2.42;1.25;;;9.30;72.90;;;;;;5102386;28;20024;-67
2021/07/24 03:14:53;;;;;;;2.35;1.20;;;9.30;73.20;;;;;;5096687;28;20028;-68
2021/07/24 03:17:20;;;;;;;2.03;1.45;;;9.20;73.20;;;;;;5100916;28;20102;-67
2021/07/24 03:19:47;;;;;;;2.90;1.40;;;9.20;73.20;;;;;;5104943;28;20119;-65
2021/07/24 03:22:13;;;;;;;3.08;1.67;;;9.20;73.30;;;;;;5103598;28;20047;-67
2021/07/24 03:24:40;;;;;;;2.17;1.05;;;9.10;72.70;;;;;;5097825;28;20020;-67
2021/07/24 03:27:06;;;;;;;1.95;1.58;;;9.10;73.00;;;;;;5101860;28;21000;-68
2021/07/24 03:29:32;;;;;;;1.40;0.70;;;9.10;73.60;;;;;;5094873;28;20432;-66
2021/07/24 03:32:38;;;;;;;1.95;0.65;;;9.10;73.80;;;;;;5103370;28;20114;-69
2021/07/24 03:35:05;;;;;;;1.58;0.75;;;9.10;73.80;;;;;;5117970;27;20448;-69
2021/07/24 03:37:32;;;;;;;1.80;1.23;;;9.10;73.80;;;;;;5101256;28;20111;-65
2021/07/24 03:39:59;;;;;;;1.00;0.30;;;9.10;73.80;;;;;;5105738;28;20616;-67
2021/07/24 03:42:25;;;;;;;0.45;0.38;;;9.10;73.90;;;;;;5105012;28;20047;-70
2021/07/24 03:44:52;;;;;;;32.88;21.02;;;9.10;74.20;;;;;;5106178;28;20023;-65
2021/07/24 03:47:18;;;;;;;22.70;16.48;;;9.10;73.90;;;;;;5103254;28;20027;-66
2021/07/24 03:49:45;;;;;;;28.98;17.58;;;9.10;73.70;;;;;;5101578;28;20047;-66
2021/07/24 03:52:11;;;;;;;5.70;3.42;;;9.10;74.00;;;;;;5106364;28;20020;-69
2021/07/24 03:54:38;;;;;;;7.47;1.98;;;9.10;73.90;;;;;;5105036;28;20081;-71
2021/07/24 03:57:05;;;;;;;1.67;1.23;;;9.10;73.80;;;;;;5105846;28;20730;-66
2021/07/24 03:59:31;;;;;;;1.92;1.48;;;9.00;73.50;;;;;;5108079;28;20019;-67
2021/07/24 04:01:58;;;;;;;1.90;1.45;;;9.00;73.20;;;;;;5099104;28;20031;-67
2021/07/24 04:04:25;;;;;;;1.13;0.95;;;9.00;73.50;;;;;;5101238;28;20639;-69
2021/07/24 04:06:55;;;;;;;4.55;2.55;;;9.00;73.50;;;;;;5104911;28;20089;-67
2021/07/24 04:09:22;;;;;;;1.80;1.10;;;8.90;73.60;;;;;;5104927;28;20417;-67
2021/07/24 04:11:49;;;;;;;3.45;1.20;;;8.90;73.70;;;;;;5108592;28;20415;-68
2021/07/24 04:14:16;;;;;;;2.38;1.00;;;8.90;73.90;;;;;;5102831;28;20008;-69
2021/07/24 04:16:43;;;;;;;2.67;1.58;;;8.90;74.20;;;;;;5104058;28;20035;-70
2021/07/24 04:19:09;;;;;;;3.22;1.33;;;8.90;74.30;;;;;;5108093;28;20024;-69
2021/07/24 04:21:36;;;;;;;1.00;0.70;;;8.90;74.30;;;;;;5104326;28;20040;-68
2021/07/24 04:24:42;;;;;;;3.92;0.55;;;8.90;74.40;;;;;;5101762;28;20570;-70
2021/07/24 04:27:48;;;;;;;0.87;0.57;;;8.90;73.80;;;;;;5102679;28;20024;-69
2021/07/24 04:30:54;;;;;;;0.73;0.40;;;8.90;73.90;;;;;;5106578;28;20042;-69
2021/07/24 04:34:00;;;;;;;3.10;0.40;;;8.80;74.10;;;;;;5103608;28;20318;-70
2021/07/24 04:37:06;;;;;;;1.90;0.33;;;8.80;73.30;;;;;;5107924;28;20032;-66
2021/07/24 04:40:12;;;;;;;1.30;0.17;;;8.80;72.20;;;;;;5108145;28;20035;-67
2021/07/24 04:43:19;;;;;;;0.50;0.30;;;8.80;72.10;;;;;;5103507;28;20028;-72
2021/07/24 04:46:06;;;;;;;;;;;8.80;72.30;;;;;;5103670;28;20031;-70
2021/07/24 04:49:12;;;;;;;17.15;11.85;;;8.80;71.40;;;;;;5102296;28;20000;-66
2021/07/24 04:51:41;;;;;;;1.93;1.63;;;8.80;71.20;;;;;;5105160;28;21582;-71
2021/07/24 04:54:09;;;;;;;2.97;0.85;;;8.80;71.10;;;;;;5093601;28;20024;-70
2021/07/24 04:56:38;;;;;;;3.08;0.65;;;8.70;71.10;;;;;;5098899;28;20023;-65
2021/07/24 04:59:06;;;;;;;1.80;0.77;;;8.70;71.20;;;;;;5095802;28;20016;-66
2021/07/24 05:01:35;;;;;;;2.95;1.02;;;8.70;71.80;;;;;;5097868;28;20039;-68
2021/07/24 05:04:02;;;;;;;4.43;1.08;;;8.60;72.00;;;;;;5099247;28;20501;-70
2021/07/24 05:06:31;;;;;;;1.85;1.70;;;8.60;72.10;;;;;;5097337;28;20027;-68
2021/07/24 05:08:58;;;;;;;1.77;1.20;;;8.60;72.50;;;;;;5095857;28;20028;-68
2021/07/24 05:11:24;;;;;;;3.38;1.60;;;8.50;72.40;;;;;;5096903;28;20495;-67
2021/07/24 05:13:51;;;;;;;3.25;1.10;;;8.50;72.10;;;;;;5098759;28;20526;-68
2021/07/24 05:16:17;;;;;;;2.65;1.15;;;8.50;72.40;;;;;;5097855;28;20734;-71
2021/07/24 05:18:44;;;;;;;6.28;1.92;;;8.50;72.50;;;;;;5095367;28;20369;-70
2021/07/24 05:21:17;;;;;;;4.35;1.73;;;8.50;72.60;;;;;;5097564;28;20032;-67
2021/07/24 05:23:44;;;;;;;1.60;1.50;;;8.50;72.70;;;;;;5093262;28;20036;-73
2021/07/24 05:26:14;;;;;;;2.25;1.67;;;8.40;72.70;;;;;;5099171;28;20031;-69
2021/07/24 05:28:43;;;;;;;15.10;9.82;;;8.40;73.00;;;;;;5095324;28;20039;-66
2021/07/24 05:31:20;;;;;;;42.08;28.67;;;8.40;73.10;;;;;;5095670;28;20433;-68
2021/07/24 05:33:47;;;;;;;9.18;6.20;;;8.40;73.30;;;;;;5098774;28;20031;-68
2021/07/24 05:36:13;;;;;;;10.30;3.70;;;8.30;73.20;;;;;;5099496;28;20837;-75
2021/07/24 05:38:40;;;;;;;6.90;3.15;;;8.30;73.10;;;;;;5108316;27;20032;-69
2021/07/24 05:41:06;;;;;;;8.00;5.13;;;8.30;73.20;;;;;;5094301;28;20036;-71
2021/07/24 05:43:33;;;;;;;7.22;4.63;;;8.20;73.50;;;;;;5096818;28;20073;-67
2021/07/24 05:46:02;;;;;;;6.05;3.88;;;8.20;73.40;;;;;;5095109;28;20052;-69
2021/07/24 05:48:29;;;;;;;5.32;3.15;;;8.20;73.00;;;;;;5097055;28;20028;-73
2021/07/24 05:50:55;;;;;;;2.50;2.30;;;8.20;73.00;;;;;;5095844;28;20046;-71
2021/07/24 05:53:22;;;;;;;3.45;2.13;;;8.20;73.10;;;;;;5097534;28;20020;-72
2021/07/24 05:55:48;;;;;;;3.13;2.15;;;8.20;73.00;;;;;;5094291;28;20678;-68
2021/07/24 05:58:15;;;;;;;3.38;1.60;;;8.20;72.80;;;;;;5102525;28;20549;-68
2021/07/24 06:00:41;;;;;;;5.22;1.70;;;8.20;72.80;;;;;;5100095;28;20040;-69
2021/07/24 06:03:08;;;;;;;1.77;1.23;;;8.20;73.10;;;;;;5093772;28;20020;-67
2021/07/24 06:05:35;;;;;;;3.38;1.58;;;8.20;73.20;;;;;;5097814;28;20009;-67
2021/07/24 06:08:01;;;;;;;2.75;1.90;;;8.20;73.20;;;;;;5101912;28;20074;-67
2021/07/24 06:10:28;;;;;;;4.15;2.20;;;8.20;73.30;;;;;;5107418;28;20402;-69
2021/07/24 06:12:54;;;;;;;13.20;10.13;;;8.20;73.60;;;;;;5102645;28;20375;-66
2021/07/24 06:15:21;;;;;;;116.18;74.65;;;8.20;73.80;;;;;;5099612;28;20542;-67
2021/07/24 06:17:47;;;;;;;31.30;19.85;;;8.20;73.60;;;;;;5109494;28;20019;-69
2021/07/24 06:20:13;;;;;;;6.68;4.65;;;8.20;73.90;;;;;;5102665;28;20148;-67
2021/07/24 06:22:40;;;;;;;6.45;3.60;;;8.20;74.30;;;;;;5104232;28;20046;-67
2021/07/24 06:25:07;;;;;;;5.75;2.63;;;8.30;74.50;;;;;;5098926;28;20030;-66
2021/07/24 06:27:35;;;;;;;5.85;1.55;;;8.30;74.90;;;;;;5109137;28;20026;-69
2021/07/24 06:30:02;;;;;;;3.72;1.92;;;8.30;74.90;;;;;;5108366;28;20031;-73
2021/07/24 06:32:28;;;;;;;2.63;2.03;;;8.40;74.70;;;;;;5101107;28;20024;-67
2021/07/24 06:34:54;;;;;;;4.13;2.30;;;8.50;74.70;;;;;;5099497;28;20047;-66
2021/07/24 06:37:21;;;;;;;1.65;1.45;;;8.50;75.10;;;;;;5104403;28;20058;-71
2021/07/24 06:39:48;;;;;;;4.90;2.08;;;8.50;75.00;;;;;;5102292;28;20011;-65
2021/07/24 06:42:14;;;;;;;2.10;1.60;;;8.60;75.40;;;;;;5101501;28;20507;-66
2021/07/24 06:44:41;;;;;;;5.50;2.70;;;8.70;75.60;;;;;;5101188;28;20023;-64
2021/07/24 06:47:08;;;;;;;8.68;2.58;;;8.70;75.60;;;;;;5101501;28;20031;-65
2021/07/24 06:49:34;;;;;;;9.50;4.10;;;8.70;75.80;;;;;;5105202;28;20114;-64
2021/07/24 06:52:00;;;;;;;4.30;1.90;;;8.80;75.90;;;;;;5102832;28;20038;-66
2021/07/24 06:54:27;;;;;;;4.05;2.20;;;8.80;76.40;;;;;;5103006;28;20059;-70
2021/07/24 06:56:53;;;;;;;7.68;3.15;;;8.80;76.70;;;;;;5104769;28;20019;-71
2021/07/24 06:59:20;;;;;;;3.83;2.80;;;8.90;77.00;;;;;;5104974;28;20024;-74
2021/07/24 07:01:46;;;;;;;19.77;8.18;;;8.90;77.30;;;;;;5099170;28;20122;-70
2021/07/24 07:04:13;;;;;;;30.58;12.98;;;9.00;77.40;;;;;;5102175;28;20024;-70
2021/07/24 07:06:42;;;;;;;14.70;6.97;;;9.00;77.40;;;;;;5098065;28;20026;-71
2021/07/24 07:09:09;;;;;;;15.52;8.15;;;9.10;77.50;;;;;;5098524;28;20028;-70
2021/07/24 07:11:35;;;;;;;10.57;8.15;;;9.20;77.50;;;;;;5106777;28;20096;-72
2021/07/24 07:14:02;;;;;;;35.33;21.13;;;9.20;77.70;;;;;;5109806;28;20124;-68
2021/07/24 07:16:28;;;;;;;54.80;28.45;;;9.20;77.70;;;;;;5109038;28;20039;-74
2021/07/24 07:18:55;;;;;;;30.65;18.48;;;9.30;77.80;;;;;;5106305;28;20478;-70
2021/07/24 07:21:21;;;;;;;12.98;9.25;;;9.40;77.80;;;;;;5104433;28;20043;-69
2021/07/24 07:23:48;;;;;;;13.98;7.57;;;9.50;77.60;;;;;;5099406;28;20130;-70
2021/07/24 07:26:22;;;;;;;21.20;10.60;;;9.50;77.60;;;;;;5107506;28;20545;-68
2021/07/24 07:28:49;;;;;;;34.25;23.30;;;9.60;77.30;;;;;;5101766;28;20016;-69
2021/07/24 07:31:15;;;;;;;28.45;19.27;;;9.60;77.20;;;;;;5105550;28;20023;-71
2021/07/24 07:33:42;;;;;;;32.10;16.33;;;9.70;77.20;;;;;;5108079;28;20024;-69
2021/07/24 07:36:08;;;;;;;27.23;18.65;;;9.80;77.10;;;;;;5104411;28;20046;-69
2021/07/24 07:38:35;;;;;;;55.35;29.40;;;9.90;77.30;;;;;;5105121;28;20371;-71
2021/07/24 07:41:01;;;;;;;32.47;17.98;;;9.90;77.00;;;;;;5112206;28;20030;-75
2021/07/24 07:43:28;;;;;;;24.45;15.85;;;10.00;76.80;;;;;;5105486;28;20176;-80
2021/07/24 07:45:55;;;;;;;23.52;12.50;;;10.10;76.60;;;;;;5107001;28;20023;-74
2021/07/24 07:48:22;;;;;;;19.40;11.88;;;10.10;76.20;;;;;;5108494;28;20036;-72
2021/07/24 07:50:49;;;;;;;22.70;12.20;;;10.20;76.00;;;;;;5099439;28;20047;-73
2021/07/24 07:53:15;;;;;;;24.00;12.57;;;10.30;76.10;;;;;;5101388;28;20032;-70
2021/07/24 07:55:42;;;;;;;23.45;12.65;;;10.30;76.10;;;;;;5107208;28;20536;-72
2021/07/24 07:58:12;;;;;;;34.60;14.25;;;10.40;76.40;;;;;;5105798;28;20012;-73
2021/07/24 08:00:40;;;;;;;27.08;14.95;;;10.50;77.40;;;;;;5098255;28;20107;-76
2021/07/24 08:03:06;;;;;;;348.27;276.67;;;10.60;78.30;;;;;;5100132;28;20108;-76
2021/07/24 08:05:33;;;;;;;213.93;160.15;;;10.70;78.70;;;;;;5108381;28;20059;-76
2021/07/24 08:08:00;;;;;;;119.18;80.47;;;10.80;78.30;;;;;;5100238;28;20360;-75
2021/07/24 08:10:26;;;;;;;53.80;38.72;;;10.90;77.80;;;;;;5104921;28;20077;-74
2021/07/24 08:12:53;;;;;;;32.90;20.63;;;10.90;77.70;;;;;;5107611;28;20053;-75
2021/07/24 08:15:20;;;;;;;31.98;20.17;;;11.00;77.30;;;;;;5107146;28;20377;-76
2021/07/24 08:17:47;;;;;;;43.45;19.42;;;11.10;77.10;;;;;;5103711;28;20112;-75
2021/07/24 08:20:14;;;;;;;21.42;12.27;;;11.20;77.20;;;;;;5109030;28;20043;-78
2021/07/24 08:22:40;;;;;;;25.02;12.10;;;11.20;77.30;;;;;;5103689;28;20050;-74
2021/07/24 08:25:07;;;;;;;22.42;11.25;;;11.40;76.60;;;;;;5101796;28;20548;-76
2021/07/24 08:27:35;;;;;;;20.52;9.48;;;11.40;75.90;;;;;;5108637;28;20035;-75
2021/07/24 08:30:01;;;;;;;16.08;9.55;;;11.50;72.30;;;;;;5105193;28;20531;-74
2021/07/24 08:32:28;;;;;;;25.63;13.75;;;11.60;71.00;;;;;;5107556;28;20478;-76
2021/07/24 08:34:54;;;;;;;38.53;24.65;;;11.70;69.10;;;;;;5100596;28;20024;-72
2021/07/24 08:37:21;;;;;;;19.80;10.43;;;11.80;69.70;;;;;;5104333;27;20020;-73
2021/07/24 08:39:47;;;;;;;20.48;10.57;;;11.90;69.60;;;;;;5105134;28;20055;-77
2021/07/24 08:42:37;;;;;;;25.25;10.30;;;12.00;68.20;;;;;;5103834;28;20059;-71
2021/07/24 08:45:04;;;;;;;19.40;10.15;;;12.10;69.40;;;;;;5103336;28;20031;-74
2021/07/24 08:47:31;;;;;;;20.52;10.55;;;12.20;69.20;;;;;;5105942;28;20888;-73
2021/07/24 08:50:01;;;;;;;27.10;12.32;;;12.30;69.20;;;;;;5105854;28;20038;-71
2021/07/24 08:52:30;;;;;;;23.80;10.70;;;12.40;69.20;;;;;;5103825;28;20487;-74
2021/07/24 08:54:58;;;;;;;19.73;10.13;;;12.50;70.40;;;;;;5103932;28;20375;-74
2021/07/24 08:57:32;;;;;;;17.10;10.80;;;12.60;70.00;;;;;;5108019;28;20570;-75
2021/07/24 09:00:09;;;;;;;17.30;10.85;;;12.70;69.70;;;;;;5100875;28;20391;-74
2021/07/24 09:02:41;;;;;;;14.15;10.00;;;12.80;68.80;;;;;;5098042;27;20032;-75
2021/07/24 09:05:09;;;;;;;15.05;9.27;;;12.90;69.70;;;;;;5097784;28;20483;-73
2021/07/24 09:07:46;;;;;;;12.10;7.72;;;13.00;69.00;;;;;;5100046;28;20028;-72
2021/07/24 09:10:14;;;;;;;13.82;8.13;;;13.10;66.00;;;;;;5106303;28;20031;-71
2021/07/24 09:12:42;;;;;;;15.88;8.82;;;13.20;65.40;;;;;;5104654;28;20037;-74
2021/07/24 09:15:11;;;;;;;15.25;9.25;;;13.30;64.70;;;;;;5100517;28;20020;-73
2021/07/24 09:17:38;;;;;;;11.40;8.38;;;13.40;65.50;;;;;;5104385;28;20015;-73
2021/07/24 09:20:08;;;;;;;15.48;7.38;;;13.60;65.50;;;;;;5105943;28;20027;-73
2021/07/24 09:22:37;;;;;;;13.25;7.07;;;13.70;62.90;;;;;;5105397;28;20036;-72
2021/07/24 09:25:15;;;;;;;10.40;6.60;;;13.80;60.40;;;;;;5099802;28;20024;-74
2021/07/24 09:27:42;;;;;;;11.93;8.77;;;13.90;60.00;;;;;;5099128;28;20019;-71
2021/07/24 09:30:28;;;;;;;13.65;7.63;;;14.00;60.40;;;;;;5103700;28;20016;-73
2021/07/24 09:33:13;;;;;;;;;;;14.10;60.80;;;;;;5099726;28;20510;-74
2021/07/24 09:35:44;;;;;;;12.40;8.02;;;14.20;60.20;;;;;;5103038;28;19933;-71
2021/07/24 09:38:13;;;;;;;10.55;7.75;;;14.40;57.50;;;;;;5099799;28;20077;-72
2021/07/24 09:40:42;;;;;;;12.55;7.95;;;14.50;56.50;;;;;;5099548;28;20032;-73
2021/07/24 09:43:30;;;;;;;13.88;9.05;;;14.60;58.60;;;;;;5098644;28;20012;-71
2021/07/24 09:46:16;;;;;;;12.05;8.70;;;14.80;59.70;;;;;;5097991;28;20420;-72
2021/07/24 09:48:45;;;;;;;11.82;8.45;;;14.90;58.00;;;;;;5101811;28;20019;-73
2021/07/24 09:51:13;;;;;;;12.70;10.07;;;15.00;55.90;;;;;;5102836;28;20084;-71
2021/07/24 09:53:42;;;;;;;17.90;10.75;;;15.20;56.80;;;;;;5102158;28;20028;-71
2021/07/24 09:56:16;;;;;;;15.65;10.68;;;15.30;56.70;;;;;;5103487;28;20076;-72
2021/07/24 09:58:46;;;;;;;12.48;8.82;;;15.40;56.90;;;;;;5103332;28;20028;-73
2021/07/24 10:01:18;;;;;;;14.77;6.72;;;15.50;56.40;;;;;;5100182;28;20104;-76
2021/07/24 10:03:50;;;;;;;9.07;5.50;;;15.60;54.50;;;;;;5101721;28;20016;-71
2021/07/24 10:06:17;;;;;;;7.78;4.68;;;15.80;52.40;;;;;;5102734;28;20028;-74
2021/07/24 10:08:47;;;;;;;10.23;5.15;;;16.00;52.00;;;;;;5099380;28;20024;-74
2021/07/24 10:11:14;;;;;;;6.97;4.43;;;16.10;50.90;;;;;;5100066;28;20044;-75
2021/07/24 10:13:43;;;;;;;6.18;4.70;;;16.20;50.30;;;;;;5103510;28;20095;-70
2021/07/24 10:16:10;;;;;;;7.72;5.15;;;16.30;48.80;;;;;;5100771;28;20023;-75
2021/07/24 10:18:37;;;;;;;6.88;4.85;;;16.40;49.40;;;;;;5102325;28;20024;-71
2021/07/24 10:21:04;;;;;;;8.77;6.15;;;16.60;49.80;;;;;;5095451;28;20028;-72
2021/07/24 10:23:32;;;;;;;8.35;6.35;;;16.70;46.40;;;;;;5108282;28;20093;-71
2021/07/24 10:26:08;;;;;;;11.27;6.72;;;16.90;46.30;;;;;;5100048;28;20041;-71
2021/07/24 10:29:14;;;;;;;10.18;6.15;;;17.00;48.50;;;;;;5104986;28;20107;-72
2021/07/24 10:31:47;;;;;;;8.45;5.97;;;17.10;47.70;;;;;;5101693;28;20421;-72
2021/07/24 10:34:14;;;;;;;9.40;7.00;;;17.20;45.70;;;;;;5102922;28;20032;-73
2021/07/24 10:36:44;;;;;;;8.20;6.28;;;17.30;46.20;;;;;;5100455;28;20115;-73
2021/07/24 10:39:16;;;;;;;8.70;5.57;;;17.40;45.60;;;;;;5096261;28;20020;-73
2021/07/24 10:41:45;;;;;;;11.10;5.85;;;17.50;44.20;;;;;;5103161;28;20040;-73
2021/07/24 10:44:31;;;;;;;10.25;5.30;;;17.60;44.80;;;;;;5100839;28;20031;-73
2021/07/24 10:46:58;;;;;;;6.28;5.15;;;17.60;44.60;;;;;;5102996;28;20035;-74
2021/07/24 10:49:33;;;;;;;6.57;4.72;;;17.70;42.70;;;;;;5107964;28;20024;-75
2021/07/24 10:52:04;;;;;;;9.77;4.68;;;17.80;42.60;;;;;;5109754;28;20024;-73
2021/07/24 10:54:50;;;;;;;12.27;5.40;;;18.00;41.90;;;;;;5105121;28;20028;-74
2021/07/24 10:57:45;;;;;;;3.72;3.22;;;18.00;41.80;;;;;;5101133;28;20111;-75
2021/07/24 11:00:17;;;;;;;10.02;3.90;;;18.10;41.10;;;;;;5108895;28;20490;-75
2021/07/24 11:02:50;;;;;;;5.13;3.42;;;18.20;39.10;;;;;;5103458;28;20045;-73
2021/07/24 11:05:24;;;;;;;6.18;3.50;;;18.30;39.30;;;;;;5104686;28;20024;-73
2021/07/24 11:07:51;;;;;;;3.92;3.25;;;18.40;38.70;;;;;;5107075;28;20073;-72
2021/07/24 11:10:18;;;;;;;3.60;2.67;;;18.50;37.50;;;;;;5113886;27;20020;-72
2021/07/24 11:12:46;;;;;;;4.32;3.30;;;18.50;37.30;;;;;;5113568;28;20023;-74
2021/07/24 11:15:37;;;;;;;2.67;1.67;;;18.60;36.30;;;;;;5114293;28;20057;-73
2021/07/24 11:18:23;;;;;;;1.73;1.42;;;18.60;34.70;;;;;;5112906;28;20020;-71
2021/07/24 11:20:51;;;;;;;3.13;2.10;;;18.70;35.30;;;;;;5114229;28;20716;-72
2021/07/24 11:23:19;;;;;;;3.10;2.00;;;18.80;33.80;;;;;;5113328;28;20093;-71
2021/07/24 11:25:49;;;;;;;3.50;2.08;;;18.90;34.10;;;;;;5113186;28;20031;-72
2021/07/24 11:28:23;;;;;;;2.92;1.80;;;19.00;34.40;;;;;;5113986;28;20110;-73
2021/07/24 11:31:02;;;;;;;5.47;1.98;;;19.10;33.30;;;;;;5113070;28;20022;-72
2021/07/24 11:33:32;;;;;;;4.50;2.20;;;19.20;33.50;;;;;;5113881;28;20039;-73
2021/07/24 11:36:10;;;;;;;3.40;1.27;;;19.20;32.80;;;;;;5112963;28;20057;-73
2021/07/24 11:38:37;;;;;;;2.40;1.50;;;19.30;32.60;;;;;;5093732;27;20057;-72
2021/07/24 11:41:14;;;;;;;5.68;1.27;;;19.30;32.30;;;;;;5093153;28;20110;-72
2021/07/24 11:43:41;;;;;;;2.95;1.20;;;19.40;31.30;;;;;;5092025;28;20030;-71
2021/07/24 11:46:09;;;;;;;2.35;1.17;;;19.50;32.40;;;;;;5093265;28;20016;-72
2021/07/24 11:48:38;;;;;;;3.55;2.25;;;19.50;32.20;;;;;;5092200;28;20028;-70
2021/07/24 11:51:08;;;;;;;5.25;3.50;;;19.70;34.70;;;;;;5093060;28;20027;-73
2021/07/24 11:53:35;;;;;;;8.18;4.57;;;19.70;34.90;;;;;;5092624;28;20016;-71
2021/07/24 11:56:02;;;;;;;9.40;5.43;;;19.70;37.00;;;;;;5091463;28;20510;-71
2021/07/24 11:58:29;;;;;;;8.68;5.93;;;19.70;41.80;;;;;;5092959;28;20026;-73
2021/07/24 12:00:56;;;;;;;8.38;4.43;;;19.60;43.30;;;;;;5091241;28;20475;-73
2021/07/24 12:03:28;;;;;;;4.10;3.20;;;19.60;44.50;;;;;;5093079;28;20389;-73
2021/07/24 12:06:34;;;;;;;5.32;3.47;;;19.50;44.30;;;;;;5091083;28;20016;-73
2021/07/24 12:09:40;;;;;;;6.07;3.65;;;19.50;45.00;;;;;;5092075;28;20024;-76
2021/07/24 12:12:46;;;;;;;4.93;2.70;;;19.50;43.40;;;;;;5092506;28;20050;-75
2021/07/24 12:15:50;;;;;;;3.58;2.55;;;19.50;42.50;;;;;;5092184;28;20035;-74
2021/07/24 12:18:37;;;;;;;4.63;1.95;;;19.40;41.00;;;;;;5091377;28;20039;-73
2021/07/24 12:21:52;;;;;;;3.90;2.22;;;19.50;38.60;;;;;;5092324;28;20535;-74
2021/07/24 12:25:01;;;;;;;2.55;1.63;;;19.40;38.20;;;;;;5113313;27;20061;-72
2021/07/24 12:28:07;;;;;;;4.13;1.65;;;19.50;36.80;;;;;;5098353;28;20080;-72
2021/07/24 12:31:13;;;;;;;1.33;1.23;;;19.50;35.40;;;;;;5112307;28;20433;-72
2021/07/24 12:34:22;;;;;;;5.28;1.77;;;19.50;34.80;;;;;;5111822;28;20514;-75
2021/07/24 12:37:28;;;;;;;5.28;2.08;;;19.50;34.00;;;;;;5110727;28;20093;-72
2021/07/24 12:40:37;;;;;;;3.72;2.08;;;19.60;34.20;;;;;;5111154;28;20070;-74
2021/07/24 12:43:12;;;;;;;6.32;2.33;;;19.70;34.80;;;;;;5109691;28;20034;-73
2021/07/24 12:45:38;;;;;;;8.50;2.45;;;19.90;32.80;;;;;;5112102;28;20551;-70
2021/07/24 12:48:18;;;;;;;4.68;2.05;;;19.90;33.40;;;;;;5111307;28;20137;-74
2021/07/24 12:51:06;;;;;;;5.03;2.17;;;20.00;33.70;;;;;;5112154;28;20026;-70
2021/07/24 12:53:33;;;;;;;6.57;2.53;;;20.00;32.60;;;;;;5110337;28;20027;-72
2021/07/24 12:55:59;;;;;;;4.32;1.80;;;20.00;33.00;;;;;;5112244;28;20024;-73
2021/07/24 12:58:26;;;;;;;7.03;2.50;;;20.10;32.30;;;;;;5111630;28;20530;-73
2021/07/24 13:00:52;;;;;;;6.63;1.85;;;20.20;33.40;;;;;;5111635;28;20144;-69
2021/07/24 13:03:19;;;;;;;2.38;1.50;;;20.20;32.40;;;;;;5112133;28;20023;-69
2021/07/24 13:05:45;;;;;;;2.42;1.63;;;20.20;31.80;;;;;;5111006;28;20019;-75
2021/07/24 13:08:12;;;;;;;3.55;1.63;;;20.20;32.90;;;;;;5112001;28;20031;-70
2021/07/24 13:10:41;;;;;;;2.40;1.40;;;20.20;33.00;;;;;;5110910;28;20514;-74
2021/07/24 13:13:07;;;;;;;2.03;1.67;;;20.30;33.40;;;;;;5110593;28;20470;-72
2021/07/24 13:15:34;;;;;;;2.63;1.50;;;20.30;31.80;;;;;;5111159;28;20471;-71
2021/07/24 13:18:00;;;;;;;3.55;1.50;;;20.30;31.80;;;;;;5111452;28;20382;-72
2021/07/24 13:20:27;;;;;;;2.50;1.10;;;20.40;32.10;;;;;;5111638;28;20030;-70